createdAt,value
2022-11-30T00:01:32.667Z,101857.53
2022-11-30T00:03:59.699Z,101861.25
2022-11-30T00:06:26.659Z,101863.97
2022-11-30T00:08:58.446Z,101867.34
2022-11-30T00:11:28.818Z,101868.53
2022-11-30T00:13:56.628Z,101871.97
2022-11-30T00:16:27.606Z,101879.94
2022-11-30T00:18:54.668Z,101870.81
2022-11-30T00:21:21.651Z,101863.59
2022-11-30T00:23:50.939Z,101876.50
2022-11-30T00:26:21.950Z,101872.41
2022-11-30T00:28:51.390Z,101879.63
2022-11-30T00:31:20.079Z,101878.84
2022-11-30T00:33:48.206Z,101884.25
2022-11-30T00:36:18.792Z,101879.78
2022-11-30T00:38:49.207Z,101879.53
2022-11-30T00:41:17.834Z,101881.59
2022-11-30T00:43:45.161Z,101881.59
2022-11-30T00:46:12.336Z,101884.78
2022-11-30T00:48:40.903Z,101883.34
2022-11-30T00:51:09.843Z,101884.31
2022-11-30T00:53:37.426Z,101869.47
2022-11-30T00:56:05.273Z,101875.41
2022-11-30T00:58:32.600Z,101867.06
2022-11-30T01:00:59.653Z,101866.63
2022-11-30T01:03:26.787Z,101870.38
2022-11-30T01:05:53.850Z,101863.81
2022-11-30T01:08:21.163Z,101868.00
2022-11-30T01:10:53.315Z,101866.75
2022-11-30T01:13:27.286Z,101863.53
2022-11-30T01:15:54.384Z,101867.22
2022-11-30T01:18:23.614Z,101861.13
2022-11-30T01:20:50.573Z,101864.16
2022-11-30T01:23:17.492Z,101862.44
2022-11-30T01:25:55.164Z,101869.78
2022-11-30T01:28:22.181Z,101873.78
2022-11-30T01:31:19.597Z,101871.78
2022-11-30T01:33:55.621Z,101876.03
2022-11-30T01:36:26.335Z,101877.59
2022-11-30T01:39:00.293Z,101871.81
2022-11-30T01:41:35.748Z,101874.69
2022-11-30T01:44:05.813Z,101876.50
2022-11-30T01:46:46.070Z,101875.50
2022-11-30T01:49:32.077Z,101872.06
2022-11-30T01:52:47.357Z,101879.16
2022-11-30T01:55:14.315Z,101869.91
2022-11-30T01:58:01.757Z,101869.72
2022-11-30T02:00:29.291Z,101876.50
2022-11-30T02:03:08.658Z,101867.69
2022-11-30T02:05:41.219Z,101875.22
2022-11-30T02:08:11.176Z,101879.66
2022-11-30T02:10:55.934Z,101879.38
2022-11-30T02:14:15.275Z,101873.63
2022-11-30T02:17:05.166Z,101874.72
2022-11-30T02:20:09.656Z,101872.28
2022-11-30T02:23:02.816Z,101885.22
2022-11-30T02:25:59.687Z,101881.31
2022-11-30T02:29:35.231Z,101879.72
2022-11-30T02:32:22.204Z,101888.53
2022-11-30T02:34:50.707Z,101885.19
2022-11-30T02:37:21.945Z,101885.31
2022-11-30T02:39:49.096Z,101882.81
2022-11-30T02:42:16.549Z,101889.47
2022-11-30T02:44:50.280Z,101886.47
2022-11-30T02:47:55.839Z,101889.22
2022-11-30T02:50:31.676Z,101889.72
2022-11-30T02:52:59.346Z,101891.78
2022-11-30T02:55:32.141Z,101889.59
2022-11-30T02:58:02.151Z,101889.69
2022-11-30T03:00:29.204Z,101890.25
2022-11-30T03:02:58.465Z,101889.19
2022-11-30T03:05:25.674Z,101892.44
2022-11-30T03:07:52.739Z,101892.69
2022-11-30T03:10:19.846Z,101894.72
2022-11-30T03:12:49.809Z,101893.41
2022-11-30T03:15:17.023Z,101901.72
2022-11-30T03:17:44.084Z,101898.94
2022-11-30T03:20:11.441Z,101894.50
2022-11-30T03:22:43.172Z,101898.56
2022-11-30T03:25:12.721Z,101900.75
2022-11-30T03:27:39.736Z,101893.72
2022-11-30T03:30:07.709Z,101900.50
2022-11-30T03:32:34.706Z,101898.53
2022-11-30T03:35:01.717Z,101904.81
2022-11-30T03:37:28.646Z,101906.53
2022-11-30T03:39:58.425Z,101907.22
2022-11-30T03:42:28.015Z,101905.25
2022-11-30T03:44:56.182Z,101899.63
2022-11-30T03:47:25.371Z,101911.63
2022-11-30T03:49:52.304Z,101911.16
2022-11-30T03:52:21.938Z,101909.19
2022-11-30T03:54:50.971Z,101919.19
2022-11-30T03:57:18.011Z,101912.44
2022-11-30T03:59:45.085Z,101915.38
2022-11-30T04:02:15.049Z,101913.88
2022-11-30T04:04:47.116Z,101910.66
2022-11-30T04:07:14.295Z,101915.22
2022-11-30T04:09:43.369Z,101908.72
2022-11-30T04:12:12.454Z,101910.06
2022-11-30T04:14:39.458Z,101914.59
2022-11-30T04:17:08.606Z,101915.09
2022-11-30T04:19:38.582Z,101912.38
2022-11-30T04:22:07.872Z,101912.63
2022-11-30T04:24:34.856Z,101910.72
2022-11-30T04:27:01.808Z,101912.88
2022-11-30T04:29:28.674Z,101917.56
2022-11-30T04:31:55.591Z,101918.41
2022-11-30T04:34:22.613Z,101918.50
2022-11-30T04:36:49.541Z,101916.50
2022-11-30T04:39:18.976Z,101919.19
2022-11-30T04:41:45.884Z,101925.63
2022-11-30T04:44:12.812Z,101921.47
2022-11-30T04:46:42.371Z,101915.59
2022-11-30T04:49:11.591Z,101920.63
2022-11-30T04:51:42.998Z,101926.53
2022-11-30T04:54:09.975Z,101926.09
2022-11-30T04:56:39.403Z,101934.97
2022-11-30T04:59:08.783Z,101937.66
2022-11-30T05:01:35.853Z,101938.75
2022-11-30T05:04:02.838Z,101941.34
2022-11-30T05:06:29.932Z,101944.84
2022-11-30T05:08:56.915Z,101943.88
2022-11-30T05:11:25.981Z,101938.44
2022-11-30T05:13:55.281Z,101937.22
2022-11-30T05:16:22.255Z,101933.28
2022-11-30T05:18:49.318Z,101937.94
2022-11-30T05:21:16.725Z,101945.72
2022-11-30T05:23:48.782Z,101943.78
2022-11-30T05:26:16.192Z,101945.91
2022-11-30T05:28:43.290Z,101945.78
2022-11-30T05:31:10.375Z,101946.50
2022-11-30T05:33:37.492Z,101946.84
2022-11-30T05:36:10.917Z,101957.47
2022-11-30T05:38:40.386Z,101957.31
2022-11-30T05:41:09.783Z,101954.63
2022-11-30T05:43:37.037Z,101962.09
2022-11-30T05:46:06.703Z,101956.91
2022-11-30T05:48:34.198Z,101976.81
2022-11-30T05:51:18.659Z,101973.94
2022-11-30T05:53:48.779Z,101976.06
2022-11-30T05:56:21.369Z,101973.31
2022-11-30T05:58:50.923Z,101980.97
2022-11-30T06:01:36.272Z,101984.16
2022-11-30T06:04:08.768Z,101990.44
2022-11-30T06:06:36.379Z,101991.44
2022-11-30T06:09:05.910Z,101996.06
2022-11-30T06:11:32.953Z,101995.97
2022-11-30T06:14:00.062Z,101993.41
2022-11-30T06:16:29.514Z,101990.19
2022-11-30T06:18:56.561Z,101993.41
2022-11-30T06:21:24.894Z,101990.53
2022-11-30T06:23:55.241Z,101999.53
2022-11-30T06:26:27.090Z,101997.78
2022-11-30T06:28:54.065Z,101995.84
2022-11-30T06:31:21.264Z,101985.66
2022-11-30T06:33:48.291Z,101999.97
2022-11-30T06:36:22.927Z,101993.25
2022-11-30T06:38:50.643Z,101999.75
2022-11-30T06:41:18.091Z,102003.22
2022-11-30T06:43:47.565Z,101999.91
2022-11-30T06:46:14.596Z,102004.28
2022-11-30T06:48:44.003Z,102013.00
2022-11-30T06:51:11.350Z,102012.50
2022-11-30T06:53:46.156Z,102013.75
2022-11-30T06:56:15.540Z,102009.97
2022-11-30T06:58:44.683Z,102015.28
2022-11-30T07:01:15.367Z,102018.13
2022-11-30T07:03:45.721Z,102009.53
2022-11-30T07:06:14.541Z,102018.75
2022-11-30T07:08:43.152Z,102014.47
2022-11-30T07:11:13.903Z,102022.66
2022-11-30T07:13:40.786Z,102035.56
2022-11-30T07:16:11.543Z,102029.94
2022-11-30T07:18:39.095Z,102035.47
2022-11-30T07:21:07.254Z,102030.69
2022-11-30T07:23:56.721Z,102033.75
2022-11-30T07:26:27.339Z,102031.31
2022-11-30T07:28:58.756Z,102033.06
2022-11-30T07:31:36.149Z,102032.59
2022-11-30T07:34:09.088Z,102026.44
2022-11-30T07:36:36.863Z,102033.47
2022-11-30T07:39:04.576Z,102032.63
2022-11-30T07:41:31.885Z,102035.16
2022-11-30T07:43:59.565Z,102044.06
2022-11-30T07:46:28.999Z,102044.31
2022-11-30T07:48:58.954Z,102046.31
2022-11-30T07:51:30.539Z,102043.59
2022-11-30T07:53:58.127Z,102044.31
2022-11-30T07:56:28.899Z,102050.78
2022-11-30T07:59:00.209Z,102046.91
2022-11-30T08:01:30.994Z,102045.75
2022-11-30T08:03:58.930Z,102053.88
2022-11-30T08:06:33.529Z,102046.94
2022-11-30T08:09:04.180Z,102051.41
2022-11-30T08:11:36.185Z,102053.66
2022-11-30T08:14:04.061Z,102052.75
2022-11-30T08:16:36.189Z,102057.53
2022-11-30T08:19:03.427Z,102051.66
2022-11-30T08:21:32.320Z,102063.47
2022-11-30T08:24:01.948Z,102073.28
2022-11-30T08:26:32.734Z,102066.66
2022-11-30T08:29:01.150Z,102061.53
2022-11-30T08:31:36.843Z,102069.78
2022-11-30T08:34:13.629Z,102071.38
2022-11-30T08:36:50.387Z,102068.16
2022-11-30T08:39:18.886Z,102074.94
2022-11-30T08:41:52.129Z,102063.13
2022-11-30T08:44:18.962Z,102075.13
2022-11-30T08:46:53.244Z,102070.75
2022-11-30T08:49:25.872Z,102087.19
2022-11-30T08:54:48.596Z,102083.63
2022-11-30T08:57:21.690Z,102082.66
2022-11-30T08:59:49.416Z,102090.78
2022-11-30T09:02:18.654Z,102095.56
2022-11-30T09:05:09.385Z,102092.25
2022-11-30T09:07:38.391Z,102092.78
2022-11-30T09:10:06.300Z,102095.59
2022-11-30T09:12:37.092Z,102100.56
2022-11-30T09:15:07.914Z,102100.53
2022-11-30T09:17:37.535Z,102100.13
2022-11-30T09:20:05.520Z,102109.47
2022-11-30T09:22:35.196Z,102102.81
2022-11-30T09:25:02.060Z,102099.47
2022-11-30T09:27:34.762Z,102106.81
2022-11-30T09:30:02.265Z,102105.19
2022-11-30T09:32:29.881Z,102115.41
2022-11-30T09:34:59.009Z,102107.22
2022-11-30T09:37:26.026Z,102110.25
2022-11-30T09:39:52.980Z,102111.28
2022-11-30T09:42:26.100Z,102110.06
2022-11-30T09:45:11.665Z,102113.84
2022-11-30T09:48:11.225Z,102116.59
2022-11-30T09:50:43.430Z,102111.31
2022-11-30T09:53:35.672Z,102113.25
2022-11-30T09:56:04.254Z,102108.41
2022-11-30T09:58:49.463Z,102113.56
2022-11-30T10:01:20.587Z,102108.91
2022-11-30T10:03:48.069Z,102110.81
2022-11-30T10:06:35.908Z,102113.75
2022-11-30T10:09:33.536Z,102106.53
2022-11-30T10:12:09.590Z,102109.16
2022-11-30T10:15:31.991Z,102103.75
2022-11-30T10:18:48.027Z,102106.00
2022-11-30T10:21:50.564Z,102097.84
2022-11-30T10:24:35.854Z,102104.38
2022-11-30T10:27:17.738Z,102099.38
2022-11-30T10:29:45.067Z,102105.19
2022-11-30T10:32:22.053Z,102095.06
2022-11-30T10:35:32.082Z,102092.81
2022-11-30T10:38:04.454Z,102092.47
2022-11-30T10:40:59.647Z,102092.63
2022-11-30T10:43:32.991Z,102090.28
2022-11-30T10:46:00.337Z,102092.56
2022-11-30T10:48:56.694Z,102087.34
2022-11-30T10:51:24.166Z,102092.50
2022-11-30T10:53:51.190Z,102091.81
2022-11-30T10:56:18.179Z,102095.03
2022-11-30T10:58:55.655Z,102085.72
2022-11-30T11:01:40.722Z,102105.50
2022-11-30T11:04:14.530Z,102103.59
2022-11-30T11:06:46.716Z,102105.44
2022-11-30T11:09:37.751Z,102105.50
2022-11-30T11:12:30.985Z,102103.31
2022-11-30T11:15:18.949Z,102102.72
2022-11-30T11:17:46.220Z,102105.94
2022-11-30T11:20:35.365Z,102108.47
2022-11-30T11:23:06.510Z,102112.03
2022-11-30T11:25:43.111Z,102114.38
2022-11-30T11:28:17.195Z,102109.69
2022-11-30T11:30:46.631Z,102110.78
2022-11-30T11:33:13.606Z,102109.66
2022-11-30T11:35:46.516Z,102113.97
2022-11-30T11:38:25.289Z,102102.91
2022-11-30T11:41:03.760Z,102110.75
2022-11-30T11:43:55.508Z,102108.94
2022-11-30T11:46:25.115Z,102110.53
2022-11-30T11:49:02.674Z,102110.66
2022-11-30T11:51:35.062Z,102111.41
2022-11-30T11:54:28.992Z,102114.94
2022-11-30T11:56:57.963Z,102115.28
2022-11-30T11:59:42.651Z,102115.75
2022-11-30T12:02:21.843Z,102119.72
2022-11-30T12:04:52.983Z,102117.19
2022-11-30T12:07:24.663Z,102116.34
2022-11-30T12:10:50.600Z,102129.41
2022-11-30T12:13:19.940Z,102123.03
2022-11-30T12:16:10.487Z,102125.03
2022-11-30T12:18:49.293Z,102126.72
2022-11-30T12:21:25.452Z,102127.88
2022-11-30T12:24:37.041Z,102129.75
2022-11-30T12:27:53.391Z,102135.06
2022-11-30T12:30:53.549Z,102141.94
2022-11-30T12:33:47.761Z,102139.53
2022-11-30T12:36:37.188Z,102133.50
2022-11-30T12:39:30.717Z,102133.66
2022-11-30T12:42:15.248Z,102129.88
2022-11-30T12:45:20.734Z,102133.94
2022-11-30T12:48:31.796Z,102137.19
2022-11-30T12:51:17.120Z,102139.66
2022-11-30T12:54:14.070Z,102131.31
2022-11-30T12:57:14.485Z,102137.84
2022-11-30T13:00:00.962Z,102132.69
2022-11-30T13:03:04.087Z,102137.13
2022-11-30T13:05:45.201Z,102138.38
2022-11-30T13:08:26.043Z,102149.69
2022-11-30T13:11:00.524Z,102139.00
2022-11-30T13:13:38.064Z,102138.69
2022-11-30T13:16:08.387Z,102139.22
2022-11-30T13:18:39.377Z,102147.41
2022-11-30T13:21:24.016Z,102139.06
2022-11-30T13:24:14.588Z,102145.09
2022-11-30T13:26:55.866Z,102136.88
2022-11-30T13:29:55.128Z,102143.59
2022-11-30T13:32:56.035Z,102137.03
2022-11-30T13:35:28.228Z,102137.25
2022-11-30T13:38:35.704Z,102137.59
2022-11-30T13:41:06.496Z,102138.88
2022-11-30T13:43:47.871Z,102135.44
2022-11-30T13:46:24.057Z,102146.00
2022-11-30T13:49:32.264Z,102147.75
2022-11-30T13:52:22.027Z,102155.28
2022-11-30T13:54:54.553Z,102156.56
2022-11-30T13:57:30.351Z,102166.47
2022-11-30T13:59:59.863Z,102163.00
2022-11-30T14:02:33.024Z,102165.84
2022-11-30T14:05:18.567Z,102166.72
2022-11-30T14:08:00.435Z,102167.34
2022-11-30T14:10:35.596Z,102163.22
2022-11-30T14:13:10.495Z,102173.59
2022-11-30T14:15:46.061Z,102166.06
2022-11-30T14:18:15.953Z,102159.91
2022-11-30T14:21:02.155Z,102159.59
2022-11-30T14:23:32.247Z,102162.19
2022-11-30T14:26:15.992Z,102161.53
2022-11-30T14:29:06.091Z,102168.19
2022-11-30T14:31:58.215Z,102173.38
2022-11-30T14:34:33.010Z,102171.53
2022-11-30T14:37:25.877Z,102173.38
2022-11-30T14:39:56.766Z,102175.38
2022-11-30T14:42:29.333Z,102169.13
2022-11-30T14:45:00.399Z,102170.13
2022-11-30T14:47:34.138Z,102175.06
2022-11-30T14:50:05.909Z,102169.69
2022-11-30T14:52:53.943Z,102174.22
2022-11-30T14:55:56.689Z,102171.84
2022-11-30T14:58:39.232Z,102184.81
2022-11-30T15:01:30.960Z,102185.25
2022-11-30T15:04:07.033Z,102176.09
2022-11-30T15:06:34.423Z,102176.09
2022-11-30T15:09:05.192Z,102176.63
2022-11-30T15:11:32.387Z,102179.94
2022-11-30T15:14:10.334Z,102173.34
2022-11-30T15:16:38.442Z,102172.69
2022-11-30T15:19:31.754Z,102172.91
2022-11-30T15:22:01.913Z,102182.84
2022-11-30T15:24:29.978Z,102176.94
2022-11-30T15:27:17.679Z,102180.28
2022-11-30T15:29:58.569Z,102181.47
2022-11-30T15:32:28.794Z,102170.38
2022-11-30T15:35:03.285Z,102186.09
2022-11-30T15:37:33.493Z,102190.84
2022-11-30T15:40:08.339Z,102185.25
2022-11-30T15:42:44.480Z,102186.09
2022-11-30T15:45:36.378Z,102190.44
2022-11-30T15:48:05.632Z,102184.59
2022-11-30T15:50:37.681Z,102198.72
2022-11-30T15:53:51.465Z,102195.16
2022-11-30T15:56:28.171Z,102190.22
2022-11-30T15:59:23.985Z,102191.06
2022-11-30T16:02:03.032Z,102190.63
2022-11-30T16:05:19.753Z,102193.00
2022-11-30T16:08:04.634Z,102200.78
2022-11-30T16:10:40.049Z,102203.34
2022-11-30T16:13:07.286Z,102200.66
2022-11-30T16:15:36.542Z,102205.09
2022-11-30T16:18:22.416Z,102207.25
2022-11-30T16:21:03.605Z,102207.47
2022-11-30T16:23:33.715Z,102215.97
2022-11-30T16:26:00.886Z,102208.31
2022-11-30T16:28:27.854Z,102214.34
2022-11-30T16:31:00.028Z,102217.59
2022-11-30T16:33:27.816Z,102214.03
2022-11-30T16:36:07.752Z,102215.53
2022-11-30T16:38:34.675Z,102221.56
2022-11-30T16:41:22.973Z,102227.94
2022-11-30T16:43:57.750Z,102229.03
2022-11-30T16:46:27.646Z,102231.38
2022-11-30T16:48:57.771Z,102229.66
2022-11-30T16:51:34.897Z,102231.16
2022-11-30T16:54:02.475Z,102228.38
2022-11-30T16:56:29.653Z,102223.50
2022-11-30T16:58:56.762Z,102231.34
2022-11-30T17:01:35.868Z,102235.19
2022-11-30T17:04:22.946Z,102234.00
2022-11-30T17:06:53.690Z,102232.28
2022-11-30T17:09:26.731Z,102238.88
2022-11-30T17:11:56.086Z,102235.66
2022-11-30T17:14:23.298Z,102236.81
2022-11-30T17:16:52.526Z,102243.25
2022-11-30T17:19:19.640Z,102241.22
2022-11-30T17:21:52.880Z,102254.56
2022-11-30T17:24:19.969Z,102253.56
2022-11-30T17:26:47.068Z,102250.63
2022-11-30T17:29:18.498Z,102261.84
2022-11-30T17:31:45.687Z,102261.31
2022-11-30T17:34:14.986Z,102264.03
2022-11-30T17:36:42.053Z,102266.28
2022-11-30T17:39:09.671Z,102262.81
2022-11-30T17:41:39.090Z,102260.78
2022-11-30T17:44:05.997Z,102268.59
2022-11-30T17:46:33.229Z,102272.34
2022-11-30T17:49:00.249Z,102271.38
2022-11-30T17:51:27.892Z,102275.53
2022-11-30T17:53:54.969Z,102273.75
2022-11-30T17:56:22.011Z,102280.97
2022-11-30T17:58:49.520Z,102277.97
2022-11-30T18:01:27.750Z,102284.13
2022-11-30T18:04:12.661Z,102277.78
2022-11-30T18:07:05.427Z,102280.91
2022-11-30T18:09:48.680Z,102281.88
2022-11-30T18:12:38.163Z,102287.06
2022-11-30T18:15:19.214Z,102285.66
2022-11-30T18:18:00.144Z,102291.81
2022-11-30T18:20:34.395Z,102293.31
2022-11-30T18:23:04.311Z,102301.75
2022-11-30T18:25:36.892Z,102295.03
2022-11-30T18:28:05.458Z,102294.81
2022-11-30T18:30:55.920Z,102296.53
2022-11-30T18:33:24.995Z,102295.25
2022-11-30T18:35:59.014Z,102300.78
2022-11-30T18:38:31.661Z,102302.94
2022-11-30T18:41:04.241Z,102297.75
2022-11-30T18:43:33.589Z,102301.06
2022-11-30T18:46:13.094Z,102302.78
2022-11-30T18:48:47.424Z,102305.59
2022-11-30T18:51:20.730Z,102316.84
2022-11-30T18:53:47.932Z,102308.00
2022-11-30T18:56:20.861Z,102312.06
2022-11-30T18:58:48.786Z,102313.19
2022-11-30T19:01:26.054Z,102311.34
2022-11-30T19:03:57.933Z,102310.25
2022-11-30T19:06:29.859Z,102311.75
2022-11-30T19:09:20.064Z,102319.19
2022-11-30T19:11:47.158Z,102323.81
2022-11-30T19:14:20.020Z,102320.13
2022-11-30T19:16:47.271Z,102317.88
2022-11-30T19:19:14.960Z,102332.88
2022-11-30T19:21:45.098Z,102326.31
2022-11-30T19:24:12.150Z,102333.00
2022-11-30T19:26:40.189Z,102335.03
2022-11-30T19:29:08.369Z,102331.78
2022-11-30T19:31:37.918Z,102332.34
2022-11-30T19:34:11.978Z,102331.91
2022-11-30T19:36:40.075Z,102336.22
2022-11-30T19:39:09.370Z,102336.09
2022-11-30T19:41:39.018Z,102341.50
2022-11-30T19:44:06.262Z,102345.31
2022-11-30T19:46:34.705Z,102351.03
2022-11-30T19:49:04.823Z,102345.94
2022-11-30T19:51:32.180Z,102346.59
2022-11-30T19:54:02.345Z,102347.03
2022-11-30T19:56:31.796Z,102340.34
2022-11-30T19:59:04.388Z,102341.53
2022-11-30T20:01:35.227Z,102350.06
2022-11-30T20:04:03.112Z,102348.44
2022-11-30T20:06:36.994Z,102352.00
2022-11-30T20:09:09.877Z,102348.09
2022-11-30T20:11:40.173Z,102353.84
2022-11-30T20:14:18.076Z,102350.94
2022-11-30T20:16:45.271Z,102349.72
2022-11-30T20:19:12.226Z,102360.13
2022-11-30T20:21:39.237Z,102356.97
2022-11-30T20:24:08.465Z,102362.25
2022-11-30T20:26:41.553Z,102364.09
2022-11-30T20:29:16.417Z,102367.78
2022-11-30T20:31:46.190Z,102366.03
2022-11-30T20:34:13.318Z,102356.09
2022-11-30T20:36:40.297Z,102361.72
2022-11-30T20:39:07.543Z,102364.19
2022-11-30T20:41:36.961Z,102361.50
2022-11-30T20:44:04.107Z,102366.59
2022-11-30T20:46:38.424Z,102363.22
2022-11-30T20:49:17.967Z,102366.91
2022-11-30T20:51:45.807Z,102367.13
2022-11-30T20:54:16.089Z,102365.63
2022-11-30T20:56:43.425Z,102364.31
2022-11-30T20:59:19.766Z,102362.59
2022-11-30T21:01:47.398Z,102361.94
2022-11-30T21:04:17.035Z,102359.78
2022-11-30T21:06:46.912Z,102367.56
2022-11-30T21:09:20.386Z,102365.16
2022-11-30T21:11:49.819Z,102359.44
2022-11-30T21:14:20.070Z,102362.78
2022-11-30T21:16:47.146Z,102365.72
2022-11-30T21:19:15.112Z,102359.78
2022-11-30T21:21:42.178Z,102359.56
2022-11-30T21:24:11.359Z,102366.69
2022-11-30T21:26:43.299Z,102367.78
2022-11-30T21:29:17.308Z,102361.31
2022-11-30T21:31:45.087Z,102359.78
2022-11-30T21:34:12.589Z,102363.78
2022-11-30T21:36:40.396Z,102367.34
2022-11-30T21:39:17.719Z,102372.28
2022-11-30T21:41:44.883Z,102371.63
2022-11-30T21:44:15.146Z,102372.41
2022-11-30T21:46:45.505Z,102371.66
2022-11-30T21:49:16.464Z,102362.25
2022-11-30T21:51:46.103Z,102368.63
2022-11-30T21:54:14.519Z,102368.53
2022-11-30T21:56:43.706Z,102371.97
2022-11-30T21:59:14.776Z,102373.59
2022-11-30T22:01:47.652Z,102371.22
2022-11-30T22:04:15.437Z,102366.66
2022-11-30T22:06:44.010Z,102366.38
2022-11-30T22:09:17.562Z,102365.41
2022-11-30T22:11:45.859Z,102373.94
2022-11-30T22:14:16.184Z,102373.28
2022-11-30T22:16:46.333Z,102379.75
2022-11-30T22:19:13.570Z,102372.09
2022-11-30T22:21:44.057Z,102370.59
2022-11-30T22:24:16.675Z,102371.66
2022-11-30T22:26:45.834Z,102367.88
2022-11-30T22:29:19.895Z,102374.47
2022-11-30T22:31:49.827Z,102371.66
2022-11-30T22:34:17.169Z,102376.63
2022-11-30T22:36:45.724Z,102369.19
2022-11-30T22:39:20.382Z,102378.03
2022-11-30T22:41:55.548Z,102378.34
2022-11-30T22:44:26.417Z,102376.72
2022-11-30T22:46:53.762Z,102377.50
2022-11-30T22:49:23.160Z,102380.94
2022-11-30T22:51:50.873Z,102375.34
2022-11-30T22:54:18.682Z,102371.97
2022-11-30T22:56:46.713Z,102366.91
2022-11-30T22:59:16.749Z,102363.69
2022-11-30T23:01:51.462Z,102364.75
2022-11-30T23:04:22.944Z,102375.81
2022-11-30T23:06:52.926Z,102372.66
2022-11-30T23:09:23.846Z,102376.69
2022-11-30T23:11:54.459Z,102379.59
2022-11-30T23:14:24.063Z,102374.00
2022-11-30T23:16:51.001Z,102374.63
2022-11-30T23:19:18.309Z,102383.25
2022-11-30T23:21:45.689Z,102374.00
2022-11-30T23:24:20.201Z,102377.47
2022-11-30T23:26:48.316Z,102372.53
2022-11-30T23:29:17.570Z,102381.06
2022-11-30T23:31:45.525Z,102376.94
2022-11-30T23:34:22.550Z,102381.25
2022-11-30T23:36:50.729Z,102375.44
2022-11-30T23:39:20.313Z,102380.94
2022-11-30T23:41:48.218Z,102382.22
2022-11-30T23:44:15.754Z,102386.44
2022-11-30T23:46:42.965Z,102380.63
2022-11-30T23:49:13.019Z,102385.47
2022-11-30T23:51:43.853Z,102382.88
2022-11-30T23:54:12.989Z,102378.13
2022-11-30T23:56:39.895Z,102375.44
2022-11-30T23:59:08.581Z,102382.13
